MMPN/UPN METAR and TAF weather

Enter ICAO airport designator
Station Type Date Time Source
MMPN METAR 2019/06/18 12:40 UTC NOAA

MMPN 181240Z 00000KT 1/2SM FG VV004 17/17 A3022 RMK 8////


Station Type Date Time Source
MMPN Decoded METAR 2019/06/18 12:40 UTC NOAA

Uruapan / Gen Rayon, Mexico (MMPN) 19-24N 102-02W
Jun 18, 2019 - 08:40 AM EDT / 2019.06.18 1240 UTC
Wind: Calm:0
Visibility: 1/2 mile(s):0
Sky conditions: obscured
Weather: fog
Temperature: 62 F (17 C)
Dew Point: 62 F (17 C)
Relative Humidity: 100%
Pressure (altimeter): 30.22 in. Hg (1023 hPa)
ob: MMPN 181240Z 00000KT 1/2SM FG VV004 17/17 A3022 RMK 8////
cycle: 12

Station Type Date Time Source
MMPN TAF 2019/06/18 13:59 UTC NOAA

TAF
AMD MMPN 181253Z 1813/1906 00000KT 1/2SM FG VV004
FM181500 00000KT 2SM BR BKN010
FM181600 00000KT 4SM HZ SCT020 BKN080
FM181800 20010KT P6SM SCT030
TEMPO 1821/1901 4SM TSRA BKN020CB

Example: see airport list